Anderson, Missouri
Current Conditions -  °F | °C
As of 10:55 AM on Saturday 22 Nov 2014 (Local Time) from KGMJ Reporting Station
Light Rain Light Rain  
Wind Chill: 55°   Ceiling: 1200
Heat Index: 55°   Visibility: 10mi
Dew Point: 55°   Wind: 15mph
Humidity: 100%   Direction: 170°S
Pressure: 30.04"   Gusts: 20mph
Location:  36.65°N, 94.44°W
Report Text: KGMJ 221655Z AUTO 17013G17KT 10SM -RA BKN012 BKN060 OVC090 13/13 A3004 RMK AO2 LTG DSNT SW AND W P0001
Loading
Personal Weather Stations






























Interactive Weather Map New forecast layout! Learn more

10-Day Weather Forecast

Advertisements
Track Severe Weather on mobile